Portada
METAR-TAF:

METAR-TAF

Aeroports :

Aeroport Internacional de Tunis

Tunis, Tunísia

latitud: 36-50N, longitud: 010-14E, altitud: 3 m

Observació

L'informe es va fer fa 48 minuts, a les 17:00 UTC
Vent 8 kt del Sud-Est, variant entre Est i Sud/Sud-Oest
Temperatura 16°C
Humitat 68%
Pressió 1027 hPa
Visibilitat 10 km o més
Escasses núvols a una alçada de 2300 ft

METAR: DTTA 211700Z 14008KT 100V200 9999 FEW023 16/10 Q1027

Hora: 18:48 (17:48 UTC)

Pronòstic

L'informe es va fer fa 48 minuts, a les 17:00 UTC
Pronòstic vàlid del 21 a les 18 UTC al 22 a les 18 UTC
Vent 10 kt del Sud-Est amb ràfegues de 20 kt
Visibilitat 10 km o més
Escasses núvols a una alçada de 2300 ft
Temporalment
l' 21 a les 18 UTC al 21 a les 22 UTC
Vent 20 kt del Sud-Est amb ràfegues de 35 kt
Evolucionant progressivament
l' 21 a les 22 UTC al 21 a les 24 UTC
Vent 15 kt del Sud-Est amb ràfegues de 25 kt

TAF: DTTA 211700Z 2118/2218 14010G20KT 9999 FEW023 TEMPO 2118/2122 14020G35KT BECMG 2122/2124 14015G25KT

Observacions i pronòstics meteorològics de més de 4000 aeroports (METAR i TAF).

Les estacions disponibles són els punts grocs i vermells al mapa.

Posi el ratolí al punt desitjat per veure el nom de l'estació.

Feu clic per veure les observacions i els pronòstics meteorològics.

Per canviar el mapa: feu clic els botons verds amb una creu de color negre per apropar; al botó verd amb un guió per allunyar la imatge; o en les fletxes verdes per a mapes adjacents.


METAR-TAF: